createdAt,value
2022-09-13T00:01:33.976Z,15.30
2022-09-13T00:04:01.419Z,15.33
2022-09-13T00:06:28.747Z,15.33
2022-09-13T00:08:55.999Z,15.37
2022-09-13T00:11:26.662Z,15.38
2022-09-13T00:13:54.491Z,15.32
2022-09-13T00:16:25.055Z,15.27
2022-09-13T00:18:53.857Z,15.17
2022-09-13T00:21:22.688Z,15.13
2022-09-13T00:23:55.070Z,15.13
2022-09-13T00:26:25.919Z,15.09
2022-09-13T00:28:55.990Z,15.14
2022-09-13T00:31:27.546Z,15.17
2022-09-13T00:33:55.216Z,15.05
2022-09-13T00:36:22.502Z,15.02
2022-09-13T00:38:49.879Z,15.00
2022-09-13T00:41:19.102Z,14.99
2022-09-13T00:43:55.414Z,14.99
2022-09-13T00:46:26.047Z,15.00
2022-09-13T00:48:59.954Z,14.98
2022-09-13T00:51:28.190Z,14.93
2022-09-13T00:53:59.541Z,14.88
2022-09-13T00:56:45.711Z,14.84
2022-09-13T00:59:23.492Z,14.69
2022-09-13T01:01:54.972Z,14.63
2022-09-13T01:04:26.287Z,14.67
2022-09-13T01:06:56.301Z,14.59
2022-09-13T01:09:24.752Z,14.58
2022-09-13T01:12:04.660Z,14.56
2022-09-13T01:14:33.306Z,14.56
2022-09-13T01:17:01.099Z,14.52
2022-09-13T01:19:28.476Z,14.48
2022-09-13T01:22:26.050Z,14.47
2022-09-13T01:25:13.623Z,14.50
2022-09-13T01:28:15.075Z,14.48
2022-09-13T01:30:45.027Z,14.50
2022-09-13T01:33:41.537Z,14.50
2022-09-13T01:36:32.754Z,14.44
2022-09-13T01:39:09.861Z,14.43
2022-09-13T01:41:37.150Z,14.49
2022-09-13T01:44:16.363Z,14.47
2022-09-13T01:46:46.239Z,14.49
2022-09-13T01:49:22.323Z,14.54
2022-09-13T01:51:53.043Z,14.57
2022-09-13T01:54:26.255Z,14.57
2022-09-13T01:57:12.358Z,14.53
2022-09-13T01:59:50.847Z,14.50
2022-09-13T02:02:31.775Z,14.46
2022-09-13T02:05:06.614Z,14.41
2022-09-13T02:07:42.112Z,14.44
2022-09-13T02:10:20.681Z,14.39
2022-09-13T02:12:49.556Z,14.32
2022-09-13T02:15:32.030Z,14.27
2022-09-13T02:18:11.108Z,14.26
2022-09-13T02:20:45.383Z,14.23
2022-09-13T02:23:38.255Z,14.21
2022-09-13T02:26:07.996Z,14.21
2022-09-13T02:28:44.005Z,14.20
2022-09-13T02:31:13.810Z,14.22
2022-09-13T02:33:56.864Z,14.27
2022-09-13T02:36:29.590Z,14.27
2022-09-13T02:39:02.257Z,14.28
2022-09-13T02:41:41.854Z,14.26
2022-09-13T02:44:22.426Z,14.29
2022-09-13T02:47:12.163Z,14.35
2022-09-13T02:50:06.553Z,14.34
2022-09-13T02:52:45.696Z,14.26
2022-09-13T02:55:31.602Z,14.23
2022-09-13T02:58:26.330Z,14.21
2022-09-13T03:00:55.886Z,14.16
2022-09-13T03:03:24.377Z,14.17
2022-09-13T03:05:53.143Z,14.14
2022-09-13T03:08:21.942Z,14.13
2022-09-13T03:11:11.883Z,14.08
2022-09-13T03:14:00.591Z,14.05
2022-09-13T03:16:58.130Z,13.99
2022-09-13T03:19:42.711Z,13.96
2022-09-13T03:22:26.964Z,13.90
2022-09-13T03:25:08.651Z,13.92
2022-09-13T03:27:35.860Z,13.91
2022-09-13T03:30:07.507Z,13.92
2022-09-13T03:32:50.930Z,13.97
2022-09-13T03:35:39.851Z,14.10
2022-09-13T03:38:15.575Z,14.19
2022-09-13T03:40:50.761Z,14.22
2022-09-13T03:43:24.186Z,14.25
2022-09-13T03:45:59.006Z,14.27
2022-09-13T03:48:27.891Z,14.18
2022-09-13T03:50:55.582Z,14.16
2022-09-13T03:53:28.012Z,14.06
2022-09-13T03:55:55.286Z,13.97
2022-09-13T03:58:22.792Z,13.96
2022-09-13T04:00:50.112Z,13.81
2022-09-13T04:03:17.507Z,13.67
2022-09-13T04:05:45.583Z,13.57
2022-09-13T04:08:12.854Z,13.62
2022-09-13T04:10:40.743Z,13.55
2022-09-13T04:13:07.947Z,13.52
2022-09-13T04:15:35.201Z,13.43
2022-09-13T04:18:02.508Z,13.47
2022-09-13T04:20:29.860Z,13.44
2022-09-13T04:22:57.786Z,13.40
2022-09-13T04:25:25.012Z,13.43
2022-09-13T04:27:56.131Z,13.47
2022-09-13T04:30:23.463Z,13.51
2022-09-13T04:32:50.708Z,13.47
2022-09-13T04:35:19.539Z,13.50
2022-09-13T04:37:47.214Z,13.53
2022-09-13T04:40:14.698Z,13.52
2022-09-13T04:42:44.603Z,13.57
2022-09-13T04:45:11.838Z,13.55
2022-09-13T04:47:39.183Z,13.62
2022-09-13T04:50:07.216Z,13.64
2022-09-13T04:52:34.462Z,13.79
2022-09-13T04:55:02.131Z,13.93
2022-09-13T04:57:29.648Z,14.05
2022-09-13T04:59:56.884Z,14.11
2022-09-13T05:02:24.389Z,14.14
2022-09-13T05:04:51.796Z,14.13
2022-09-13T05:07:19.021Z,13.87
2022-09-13T05:09:46.237Z,13.83
2022-09-13T05:12:13.567Z,13.91
2022-09-13T05:14:40.764Z,14.12
2022-09-13T05:17:08.168Z,14.39
2022-09-13T05:19:35.388Z,14.58
2022-09-13T05:22:03.208Z,14.64
2022-09-13T05:24:30.442Z,14.93
2022-09-13T05:26:57.701Z,15.14
2022-09-13T05:29:24.906Z,15.57
2022-09-13T05:31:52.151Z,16.08
2022-09-13T05:34:19.790Z,16.23
2022-09-13T05:36:51.709Z,16.24
2022-09-13T05:39:36.524Z,16.44
2022-09-13T05:42:09.620Z,16.57
2022-09-13T05:44:36.852Z,16.76
2022-09-13T05:47:04.214Z,17.08
2022-09-13T05:49:31.507Z,17.23
2022-09-13T05:51:58.911Z,17.63
2022-09-13T05:54:26.146Z,18.17
2022-09-13T05:56:57.423Z,18.33
2022-09-13T05:59:24.719Z,17.89
2022-09-13T06:01:52.115Z,17.90
2022-09-13T06:04:19.429Z,17.40
2022-09-13T06:06:46.646Z,17.56
2022-09-13T06:09:13.865Z,18.30
2022-09-13T06:11:41.339Z,18.71
2022-09-13T06:14:09.762Z,19.12
2022-09-13T06:16:37.107Z,20.49
2022-09-13T06:19:04.601Z,20.44
2022-09-13T06:21:31.894Z,20.27
2022-09-13T06:23:59.211Z,20.37
2022-09-13T06:26:28.307Z,19.93
2022-09-13T06:28:58.014Z,20.50
2022-09-13T06:31:27.561Z,20.77
2022-09-13T06:33:57.681Z,19.73
2022-09-13T06:36:25.234Z,20.35
2022-09-13T06:38:52.626Z,21.60
2022-09-13T06:41:23.323Z,21.26
2022-09-13T06:43:59.070Z,20.62
2022-09-13T06:46:28.187Z,20.52
2022-09-13T06:48:57.503Z,21.69
2022-09-13T06:51:25.514Z,21.07
2022-09-13T06:53:56.663Z,21.55
2022-09-13T06:56:35.622Z,22.43
2022-09-13T06:59:06.419Z,22.58
2022-09-13T07:01:43.828Z,22.41
2022-09-13T07:04:14.022Z,22.55
2022-09-13T07:06:44.299Z,23.44
2022-09-13T07:09:15.678Z,22.90
2022-09-13T07:11:43.414Z,23.29
2022-09-13T07:14:15.401Z,23.41
2022-09-13T07:16:42.806Z,23.28
2022-09-13T07:19:20.072Z,23.73
2022-09-13T07:21:48.857Z,24.37
2022-09-13T07:24:17.395Z,23.22
2022-09-13T07:26:45.199Z,23.10
2022-09-13T07:29:16.224Z,23.91
2022-09-13T07:31:48.588Z,24.85
2022-09-13T07:34:20.815Z,24.97
2022-09-13T07:36:48.852Z,25.22
2022-09-13T07:39:22.027Z,24.75
2022-09-13T07:41:51.413Z,24.85
2022-09-13T07:44:18.675Z,24.94
2022-09-13T07:46:46.000Z,25.24
2022-09-13T07:49:16.516Z,24.19
2022-09-13T07:51:45.251Z,24.44
2022-09-13T07:54:17.855Z,25.28
2022-09-13T07:56:45.802Z,23.66
2022-09-13T07:59:15.586Z,24.92
2022-09-13T08:01:50.835Z,25.84
2022-09-13T08:04:21.482Z,26.05
2022-09-13T08:06:49.060Z,26.90
2022-09-13T08:09:16.802Z,25.67
2022-09-13T08:11:49.290Z,25.51
2022-09-13T08:14:19.269Z,26.48
2022-09-13T08:16:46.585Z,26.04
2022-09-13T08:19:16.381Z,25.97
2022-09-13T08:21:44.889Z,26.40
2022-09-13T08:24:17.719Z,26.37
2022-09-13T08:26:46.224Z,25.91
2022-09-13T08:29:14.796Z,25.85
2022-09-13T08:31:42.480Z,26.31
2022-09-13T08:34:12.644Z,25.87
2022-09-13T08:36:41.186Z,26.14
2022-09-13T08:39:09.672Z,26.58
2022-09-13T08:41:45.109Z,25.88
2022-09-13T08:44:37.133Z,24.68
2022-09-13T08:47:41.611Z,26.18
2022-09-13T08:50:27.978Z,27.63
2022-09-13T08:53:05.304Z,27.20
2022-09-13T08:55:56.494Z,26.07
2022-09-13T08:58:36.822Z,26.16
2022-09-13T09:01:22.781Z,25.43
2022-09-13T09:04:13.174Z,24.83
2022-09-13T09:06:40.966Z,25.78
2022-09-13T09:09:15.868Z,26.25
2022-09-13T09:11:56.723Z,27.22
2022-09-13T09:14:38.018Z,27.98
2022-09-13T09:17:17.091Z,27.22
2022-09-13T09:19:48.399Z,27.17
2022-09-13T09:22:22.107Z,27.44
2022-09-13T09:24:54.257Z,27.68
2022-09-13T09:27:21.792Z,28.58
2022-09-13T09:29:53.562Z,29.08
2022-09-13T09:32:51.046Z,30.48
2022-09-13T09:35:51.523Z,30.56
2022-09-13T09:38:28.509Z,28.88
2022-09-13T09:40:55.782Z,28.57
2022-09-13T09:43:39.922Z,27.25
2022-09-13T09:46:10.159Z,29.15
2022-09-13T09:48:44.317Z,30.11
2022-09-13T09:51:14.806Z,29.54
2022-09-13T09:53:45.823Z,30.08
2022-09-13T09:56:15.070Z,30.19
2022-09-13T09:58:45.117Z,28.50
2022-09-13T10:01:32.725Z,28.69
2022-09-13T10:04:19.843Z,28.68
2022-09-13T10:06:47.738Z,29.76
2022-09-13T10:09:18.100Z,28.90
2022-09-13T10:11:52.169Z,28.74
2022-09-13T10:14:41.778Z,29.11
2022-09-13T10:17:23.958Z,29.24
2022-09-13T10:19:58.767Z,29.79
2022-09-13T10:22:27.103Z,29.00
2022-09-13T10:24:55.022Z,27.37
2022-09-13T10:27:34.796Z,26.46
2022-09-13T10:30:04.986Z,25.34
2022-09-13T10:32:33.219Z,25.71
2022-09-13T10:35:16.325Z,28.31
2022-09-13T10:37:45.389Z,28.05
2022-09-13T10:40:28.968Z,29.15
2022-09-13T10:43:03.282Z,29.26
2022-09-13T10:45:32.285Z,30.21
2022-09-13T10:48:09.979Z,30.32
2022-09-13T10:50:37.570Z,29.19
2022-09-13T10:53:23.137Z,28.84
2022-09-13T10:55:54.473Z,27.67
2022-09-13T10:58:21.682Z,26.71
2022-09-13T11:01:17.556Z,25.86
2022-09-13T11:04:23.425Z,25.44
2022-09-13T11:06:50.660Z,25.14
2022-09-13T11:09:45.340Z,26.57
2022-09-13T11:12:19.383Z,26.71
2022-09-13T11:15:04.358Z,26.24
2022-09-13T11:17:40.462Z,25.06
2022-09-13T11:20:39.131Z,24.54
2022-09-13T11:23:28.465Z,26.03
2022-09-13T11:26:30.023Z,26.13
2022-09-13T11:29:29.409Z,27.80
2022-09-13T11:32:23.075Z,28.88
2022-09-13T11:35:02.622Z,27.69
2022-09-13T11:37:37.770Z,26.65
2022-09-13T11:40:23.308Z,27.12
2022-09-13T11:43:25.050Z,26.89
2022-09-13T11:45:55.652Z,26.22
2022-09-13T11:48:38.110Z,28.28
2022-09-13T11:51:25.299Z,28.39
2022-09-13T11:54:14.054Z,27.71
2022-09-13T11:56:55.840Z,28.28
2022-09-13T11:59:38.737Z,27.44
2022-09-13T12:02:18.923Z,26.17
2022-09-13T12:05:22.110Z,26.96
2022-09-13T12:07:56.640Z,26.55
2022-09-13T12:10:32.683Z,25.50
2022-09-13T12:13:03.538Z,26.60
2022-09-13T12:15:40.386Z,27.02
2022-09-13T12:18:19.363Z,27.54
2022-09-13T12:20:52.539Z,28.50
2022-09-13T12:23:27.459Z,28.95
2022-09-13T12:26:00.509Z,28.71
2022-09-13T12:28:51.532Z,27.98
2022-09-13T12:31:23.350Z,27.73
2022-09-13T12:33:50.921Z,26.91
2022-09-13T12:36:33.320Z,26.32
2022-09-13T12:39:12.450Z,25.98
2022-09-13T12:42:16.934Z,26.90
2022-09-13T12:44:59.621Z,26.30
2022-09-13T12:47:48.907Z,26.09
2022-09-13T12:50:43.895Z,25.93
2022-09-13T12:53:50.592Z,26.35
2022-09-13T12:56:42.667Z,26.03
2022-09-13T12:59:09.862Z,25.69
2022-09-13T13:01:38.102Z,25.79
2022-09-13T13:04:20.563Z,25.77
2022-09-13T13:07:02.055Z,25.93
2022-09-13T13:09:48.285Z,25.92
2022-09-13T13:12:36.902Z,25.98
2022-09-13T13:15:26.466Z,25.66
2022-09-13T13:17:55.496Z,25.51
2022-09-13T13:20:46.129Z,25.28
2022-09-13T13:23:18.274Z,25.23
2022-09-13T13:26:09.282Z,25.26
2022-09-13T13:28:45.799Z,25.39
2022-09-13T13:31:25.222Z,25.37
2022-09-13T13:34:15.634Z,25.05
2022-09-13T13:36:48.993Z,25.29
2022-09-13T13:39:25.196Z,25.12
2022-09-13T13:42:38.320Z,25.30
2022-09-13T13:45:17.606Z,25.48
2022-09-13T13:48:12.504Z,25.49
2022-09-13T13:51:23.461Z,25.53
2022-09-13T13:53:55.762Z,25.44
2022-09-13T13:56:34.059Z,24.84
2022-09-13T13:59:28.256Z,25.41
2022-09-13T14:01:59.511Z,25.62
2022-09-13T14:04:43.273Z,25.38
2022-09-13T14:07:58.823Z,25.10
2022-09-13T14:10:55.519Z,25.10
2022-09-13T14:13:50.746Z,24.99
2022-09-13T14:16:45.642Z,25.03
2022-09-13T14:19:15.936Z,25.14
2022-09-13T14:21:43.169Z,24.90
2022-09-13T14:24:21.415Z,24.53
2022-09-13T14:26:51.984Z,24.98
2022-09-13T14:29:22.398Z,24.98
2022-09-13T14:31:52.628Z,24.84
2022-09-13T14:34:27.319Z,24.56
2022-09-13T14:36:59.674Z,24.60
2022-09-13T14:39:28.369Z,24.81
2022-09-13T14:42:15.630Z,24.71
2022-09-13T14:44:46.547Z,25.00
2022-09-13T14:47:25.747Z,25.08
2022-09-13T14:50:11.599Z,25.01
2022-09-13T14:53:10.666Z,24.96
2022-09-13T14:55:42.562Z,24.94
2022-09-13T14:58:24.551Z,25.11
2022-09-13T15:01:04.940Z,25.12
2022-09-13T15:03:32.831Z,24.98
2022-09-13T15:06:02.556Z,24.86
2022-09-13T15:08:32.834Z,24.76
2022-09-13T15:11:06.233Z,24.53
2022-09-13T15:13:34.638Z,24.48
2022-09-13T15:16:02.766Z,24.34
2022-09-13T15:18:36.270Z,24.27
2022-09-13T15:21:16.571Z,24.11
2022-09-13T15:23:50.788Z,24.02
2022-09-13T15:26:25.759Z,23.99
2022-09-13T15:29:02.277Z,23.95
2022-09-13T15:31:34.890Z,23.93
2022-09-13T15:34:17.658Z,23.86
2022-09-13T15:36:46.685Z,23.86
2022-09-13T15:39:16.780Z,23.97
2022-09-13T15:42:01.070Z,23.85
2022-09-13T15:44:29.881Z,23.73
2022-09-13T15:47:02.431Z,23.70
2022-09-13T15:49:31.446Z,23.63
2022-09-13T15:52:01.319Z,23.48
2022-09-13T15:54:34.547Z,23.39
2022-09-13T15:57:01.934Z,23.41
2022-09-13T15:59:29.265Z,23.38
2022-09-13T16:01:57.271Z,23.22
2022-09-13T16:04:25.147Z,23.14
2022-09-13T16:06:52.373Z,23.17
2022-09-13T16:09:23.869Z,22.93
2022-09-13T16:11:52.350Z,22.79
2022-09-13T16:14:20.274Z,22.79
2022-09-13T16:16:49.027Z,22.71
2022-09-13T16:19:22.285Z,22.62
2022-09-13T16:21:49.957Z,22.65
2022-09-13T16:24:17.374Z,22.48
2022-09-13T16:26:44.766Z,22.35
2022-09-13T16:29:12.667Z,22.30
2022-09-13T16:31:40.613Z,22.12
2022-09-13T16:34:08.179Z,22.03
2022-09-13T16:36:35.784Z,21.86
2022-09-13T16:39:03.168Z,21.85
2022-09-13T16:41:30.420Z,21.73
2022-09-13T16:43:57.662Z,21.64
2022-09-13T16:46:25.352Z,21.46
2022-09-13T16:48:56.520Z,21.29
2022-09-13T16:51:24.430Z,21.10
2022-09-13T16:53:53.063Z,21.00
2022-09-13T16:56:23.117Z,20.93
2022-09-13T16:58:51.915Z,20.88
2022-09-13T17:01:22.409Z,20.81
2022-09-13T17:03:54.452Z,20.69
2022-09-13T17:06:23.823Z,20.50
2022-09-13T17:08:55.379Z,20.42
2022-09-13T17:11:25.638Z,20.38
2022-09-13T17:13:53.795Z,20.34
2022-09-13T17:16:34.924Z,20.28
2022-09-13T17:19:05.603Z,20.19
2022-09-13T17:21:33.928Z,20.11
2022-09-13T17:24:01.975Z,20.13
2022-09-13T17:26:29.471Z,20.13
2022-09-13T17:28:56.710Z,20.10
2022-09-13T17:31:23.962Z,20.08
2022-09-13T17:33:53.176Z,20.02
2022-09-13T17:36:20.794Z,19.97
2022-09-13T17:38:48.291Z,19.92
2022-09-13T17:41:17.898Z,19.86
2022-09-13T17:43:46.484Z,19.86
2022-09-13T17:46:21.717Z,19.84
2022-09-13T17:48:52.018Z,19.78
2022-09-13T17:51:22.858Z,19.73
2022-09-13T17:53:53.077Z,19.70
2022-09-13T17:56:23.401Z,19.59
2022-09-13T17:58:50.720Z,19.43
2022-09-13T18:01:18.243Z,19.34
2022-09-13T18:03:45.806Z,19.21
2022-09-13T18:06:14.944Z,19.07
2022-09-13T18:08:42.240Z,18.97
2022-09-13T18:11:14.372Z,18.87
2022-09-13T18:13:43.828Z,18.75
2022-09-13T18:16:18.711Z,18.55
2022-09-13T18:18:52.296Z,18.45
2022-09-13T18:21:21.971Z,18.30
2022-09-13T18:23:51.534Z,18.21
2022-09-13T18:26:21.825Z,18.09
2022-09-13T18:29:02.785Z,18.02
2022-09-13T18:31:31.791Z,18.02
2022-09-13T18:34:01.895Z,18.03
2022-09-13T18:36:30.368Z,18.09
2022-09-13T18:38:58.063Z,18.09
2022-09-13T18:41:27.754Z,18.04
2022-09-13T18:43:56.404Z,17.93
2022-09-13T18:46:26.153Z,17.89
2022-09-13T18:48:57.268Z,17.79
2022-09-13T18:51:46.399Z,17.77
2022-09-13T18:54:16.310Z,17.62
2022-09-13T18:56:45.218Z,17.55
2022-09-13T18:59:12.531Z,17.46
2022-09-13T19:01:42.394Z,17.38
2022-09-13T19:04:14.137Z,17.34
2022-09-13T19:06:43.423Z,17.25
2022-09-13T19:09:11.043Z,17.24
2022-09-13T19:11:48.871Z,17.32
2022-09-13T19:14:19.073Z,17.38
2022-09-13T19:16:47.137Z,17.44
2022-09-13T19:19:14.842Z,17.49
2022-09-13T19:21:42.957Z,17.49
2022-09-13T19:24:17.670Z,17.50
2022-09-13T19:26:47.178Z,17.42
2022-09-13T19:29:17.305Z,17.34
2022-09-13T19:31:49.810Z,17.26
2022-09-13T19:34:19.121Z,17.22
2022-09-13T19:36:48.926Z,17.15
2022-09-13T19:39:16.219Z,17.14
2022-09-13T19:41:43.440Z,17.11
2022-09-13T19:44:13.069Z,17.10
2022-09-13T19:46:41.706Z,17.11
2022-09-13T19:49:13.080Z,17.10
2022-09-13T19:51:41.066Z,17.04
2022-09-13T19:54:12.209Z,16.97
2022-09-13T19:56:42.858Z,16.95
2022-09-13T19:59:13.475Z,16.92
2022-09-13T20:01:43.297Z,16.86
2022-09-13T20:04:14.484Z,16.86
2022-09-13T20:06:44.342Z,16.83
2022-09-13T20:09:13.724Z,16.78
2022-09-13T20:11:45.548Z,16.74
2022-09-13T20:14:14.784Z,16.74
2022-09-13T20:16:45.572Z,16.71
2022-09-13T20:19:39.342Z,16.63
2022-09-13T20:22:09.809Z,16.63
2022-09-13T20:24:37.176Z,16.62
2022-09-13T20:27:04.941Z,16.60
2022-09-13T20:29:32.374Z,16.53
2022-09-13T20:32:00.021Z,16.50
2022-09-13T20:34:27.997Z,16.51
2022-09-13T20:36:55.366Z,16.48
2022-09-13T20:39:22.934Z,16.39
2022-09-13T20:41:50.360Z,16.39
2022-09-13T20:44:17.870Z,16.39
2022-09-13T20:46:45.306Z,16.34
2022-09-13T20:49:12.578Z,16.26
2022-09-13T20:51:39.928Z,16.27
2022-09-13T20:54:07.722Z,16.23
2022-09-13T20:56:35.498Z,16.23
2022-09-13T20:59:04.056Z,16.16
2022-09-13T21:01:32.835Z,16.12
2022-09-13T21:04:00.647Z,16.12
2022-09-13T21:06:30.182Z,16.02
2022-09-13T21:09:01.661Z,15.93
2022-09-13T21:11:33.892Z,15.97
2022-09-13T21:14:03.479Z,15.96
2022-09-13T21:16:33.320Z,15.97
2022-09-13T21:19:01.278Z,15.96
2022-09-13T21:21:31.603Z,15.97
2022-09-13T21:24:00.469Z,15.98
2022-09-13T21:26:29.982Z,15.95
2022-09-13T21:28:58.715Z,15.92
2022-09-13T21:31:31.148Z,15.91
2022-09-13T21:34:04.101Z,15.89
2022-09-13T21:36:34.720Z,15.85
2022-09-13T21:39:02.358Z,15.83
2022-09-13T21:41:30.267Z,15.84
2022-09-13T21:43:57.531Z,15.86
2022-09-13T21:46:35.967Z,15.84
2022-09-13T21:49:05.938Z,15.80
2022-09-13T21:51:36.326Z,15.76
2022-09-13T21:54:06.653Z,15.71
2022-09-13T21:56:40.966Z,15.66
2022-09-13T21:59:15.802Z,15.62
2022-09-13T22:01:46.971Z,15.65
2022-09-13T22:04:20.096Z,15.62
2022-09-13T22:06:51.494Z,15.59
2022-09-13T22:09:20.079Z,15.56
2022-09-13T22:11:49.575Z,15.47
2022-09-13T22:14:19.815Z,15.44
2022-09-13T22:16:47.562Z,15.43
2022-09-13T22:19:17.158Z,15.35
2022-09-13T22:21:47.288Z,15.36
2022-09-13T22:24:21.570Z,15.31
2022-09-13T22:26:51.174Z,15.13
2022-09-13T22:29:19.070Z,15.08
2022-09-13T22:31:48.441Z,15.11
2022-09-13T22:34:21.402Z,15.08
2022-09-13T22:36:48.915Z,15.08
2022-09-13T22:39:17.302Z,15.09
2022-09-13T22:41:45.648Z,14.97
2022-09-13T22:44:13.096Z,14.93
2022-09-13T22:46:43.396Z,14.86
2022-09-13T22:49:15.860Z,14.82
2022-09-13T22:51:47.073Z,14.85
2022-09-13T22:54:16.049Z,14.89
2022-09-13T22:56:43.537Z,14.94
2022-09-13T22:59:12.481Z,14.98
2022-09-13T23:01:39.867Z,15.03
2022-09-13T23:04:07.813Z,15.03
2022-09-13T23:06:36.011Z,15.02
2022-09-13T23:09:06.499Z,15.01
2022-09-13T23:11:36.078Z,15.02
2022-09-13T23:14:11.390Z,15.02
2022-09-13T23:16:44.680Z,15.03
2022-09-13T23:19:13.592Z,14.88
2022-09-13T23:21:41.729Z,14.88
2022-09-13T23:24:13.717Z,14.87
2022-09-13T23:26:41.785Z,14.86
2022-09-13T23:29:14.934Z,14.91
2022-09-13T23:31:43.425Z,14.91
2022-09-13T23:34:12.533Z,14.92
2022-09-13T23:36:41.986Z,14.96
2022-09-13T23:39:13.945Z,14.98
2022-09-13T23:41:41.264Z,14.92
2022-09-13T23:44:08.497Z,14.94
2022-09-13T23:46:35.886Z,14.93
2022-09-13T23:49:03.695Z,14.88
2022-09-13T23:51:30.935Z,14.82
2022-09-13T23:54:00.871Z,14.79
2022-09-13T23:56:30.570Z,14.86
2022-09-13T23:58:59.649Z,14.90
